| time (UTC) | temp C | wind direction | speed KPH | gust KPH | rain 1hr cm | rain 24hr cm | rain mn cm | humidity % | barometer mb |
| 20260503224559 | 17 | 108 | 11.3 | 32.2 | 0.00 | 0.00 | 0.00 | 56 | 1013.5 |
| 20260503224058 | 17 | 23 | 4.8 | 14.5 | 0.00 | 0.00 | 0.00 | 57 | 1013.5 |
| 20260503223558 | 16 | 76 | 4.8 | 17.7 | 0.00 | 0.00 | 0.00 | 58 | 1013.6 |
| 20260503223058 | 16 | 230 | 9.7 | 17.7 | 0.00 | 0.00 | 0.00 | 57 | 1013.7 |
| 20260503222557 | 17 | 269 | 8.0 | 17.7 | 0.00 | 0.00 | 0.00 | 55 | 1013.7 |
| 20260503222057 | 17 | 39 | 3.2 | 25.7 | 0.00 | 0.00 | 0.00 | 57 | 1013.7 |
| 20260503221558 | 17 | 148 | 6.4 | 25.7 | 0.00 | 0.00 | 0.00 | 59 | 1013.8 |
| 20260503221101 | 17 | 146 | 8.0 | 19.3 | 0.00 | 0.00 | 0.00 | 57 | 1013.9 |
| 20260503220559 | 17 | 268 | 3.2 | 22.5 | 0.00 | 0.00 | 0.00 | 57 | 1013.9 |
| 20260503215557 | 17 | 256 | 8.0 | 22.5 | 0.00 | 0.00 | 0.00 | 56 | 1013.8 |
| 20260503215055 | 17 | 65 | 4.8 | 16.1 | 0.00 | 0.00 | 0.00 | 56 | 1013.8 |
| 20260503214558 | 17 | 122 | 1.6 | 16.1 | 0.00 | 0.00 | 0.00 | 56 | 1013.9 |
| 20260503214059 | 17 | 214 | 6.4 | 16.1 | 0.00 | 0.00 | 0.00 | 56 | 1013.8 |
| 20260503213555 | 17 | 138 | 6.4 | 16.1 | 0.00 | 0.00 | 0.00 | 56 | 1013.8 |
| 20260503213125 | 17 | 103 | 6.4 | 16.1 | 0.00 | 0.00 | 0.00 | 57 | 1013.9 |
| 20260503212558 | 17 | 82 | 4.8 | 17.7 | 0.00 | 0.00 | 0.00 | 56 | 1013.9 |
| 20260503212058 | 17 | 213 | 6.4 | 17.7 | 0.00 | 0.00 | 0.00 | 57 | 1013.7 |
| 20260503211619 | 17 | 102 | 3.2 | 25.7 | 0.00 | 0.00 | 0.00 | 58 | 1013.8 |
| 20260503211054 | 17 | 115 | 8.0 | 25.7 | 0.00 | 0.00 | 0.00 | 58 | 1014.0 |
| 20260503210654 | 16 | 159 | 8.0 | 17.7 | 0.00 | 0.00 | 0.00 | 60 | 1013.9 |
| 20260503210054 | 16 | 309 | 3.2 | 19.3 | 0.00 | 0.00 | 0.00 | 59 | 1014.0 |
| 20260503205554 | 16 | 127 | 6.4 | 19.3 | 0.00 | 0.00 | 0.00 | 58 | 1014.0 |
| 20260503205054 | 17 | 232 | 1.6 | 17.7 | 0.00 | 0.00 | 0.00 | 57 | 1014.0 |
| 20260503204604 | 17 | 290 | 6.4 | 16.1 | 0.00 | 0.00 | 0.00 | 58 | 1014.1 |
| 20260503204052 | 17 | 107 | 9.7 | 22.5 | 0.00 | 0.00 | 0.00 | 57 | 1014.0 |
| 20260503203552 | 17 | 217 | 6.4 | 22.5 | 0.00 | 0.00 | 0.00 | 57 | 1014.1 |
| 20260503203057 | 17 | 63 | 4.8 | 19.3 | 0.00 | 0.00 | 0.00 | 59 | 1014.1 |
| 20260503202553 | 16 | 227 | 6.4 | 19.3 | 0.00 | 0.00 | 0.00 | 56 | 1014.2 |
| 20260503202055 | 17 | 136 | 1.6 | 30.6 | 0.00 | 0.00 | 0.00 | 57 | 1014.2 |
| 20260503201552 | 17 | 160 | 19.3 | 30.6 | 0.00 | 0.00 | 0.00 | 56 | 1014.2 |
| 20260503201051 | 17 | 258 | 4.8 | 19.3 | 0.00 | 0.00 | 0.00 | 57 | 1014.2 |
| 20260503200550 | 16 | 236 | 8.0 | 27.4 | 0.00 | 0.00 | 0.00 | 57 | 1014.3 |
| 20260503200051 | 16 | 129 | 19.3 | 27.4 | 0.00 | 0.00 | 0.00 | 59 | 1014.2 |
| 20260503195549 | 16 | 148 | 11.3 | 20.9 | 0.00 | 0.00 | 0.00 | 59 | 1014.4 |
| 20260503195048 | 16 | 127 | 9.7 | 20.9 | 0.00 | 0.00 | 0.00 | 59 | 1014.5 |
| 20260503194648 | 16 | 139 | 8.0 | 20.9 | 0.00 | 0.00 | 0.00 | 60 | 1014.4 |
| 20260503194047 | 16 | 195 | 6.4 | 14.5 | 0.00 | 0.00 | 0.00 | 59 | 1014.5 |
| 20260503193546 | 16 | 155 | 4.8 | 14.5 | 0.00 | 0.00 | 0.00 | 59 | 1014.6 |
| 20260503193046 | 16 | 342 | 1.6 | 16.1 | 0.00 | 0.00 | 0.00 | 60 | 1014.5 |
| 20260503192546 | 15 | 258 | 4.8 | 16.1 | 0.00 | 0.00 | 0.00 | 60 | 1014.5 |
| 20260503192045 | 16 | 243 | 4.8 | 12.9 | 0.00 | 0.00 | 0.00 | 62 | 1014.6 |
| 20260503191600 | 16 | 319 | 8.0 | 14.5 | 0.00 | 0.00 | 0.00 | 60 | 1014.7 |
| 20260503191042 | 16 | 110 | 8.0 | 16.1 | 0.00 | 0.00 | 0.00 | 63 | 1014.7 |
| 20260503190542 | 15 | 162 | 4.8 | 12.9 | 0.00 | 0.00 | 0.00 | 64 | 1014.8 |
| 20260503190043 | 15 | 132 | 4.8 | 12.9 | 0.00 | 0.00 | 0.00 | 64 | 1014.8 |
| 20260503185541 | 15 | 138 | 4.8 | 12.9 | 0.00 | 0.00 | 0.00 | 64 | 1015.0 |
| 20260503185040 | 15 | 138 | 4.8 | 12.9 | 0.00 | 0.00 | 0.00 | 64 | 1015.1 |
| 20260503184553 | 15 | 169 | 4.8 | 12.9 | 0.00 | 0.00 | 0.00 | 66 | 1015.0 |
| 20260503184043 | 15 | 165 | 3.2 | 17.7 | 0.00 | 0.00 | 0.00 | 65 | 1015.1 |
| 20260503183540 | 15 | 115 | 12.9 | 17.7 | 0.00 | 0.00 | 0.00 | 65 | 1015.0 |
| 20260503183044 | 15 | 90 | 3.2 | 19.3 | 0.00 | 0.00 | 0.00 | 68 | 1015.1 |
| 20260503182536 | 15 | 185 | 3.2 | 12.9 | 0.00 | 0.00 | 0.00 | 69 | 1015.1 |
| 20260503182036 | 15 | 123 | 3.2 | 14.5 | 0.00 | 0.00 | 0.00 | 69 | 1015.2 |
| 20260503181535 | 14 | 322 | 4.8 | 14.5 | 0.00 | 0.00 | 0.00 | 71 | 1015.2 |
| 20260503181033 | 14 | 340 | 1.6 | 14.5 | 0.00 | 0.00 | 0.00 | 73 | 1015.2 |
| 20260503180534 | 13 | 260 | 4.8 | 12.9 | 0.00 | 0.00 | 0.00 | 74 | 1015.2 |
| 20260503180034 | 13 | 31 | 1.6 | 14.5 | 0.00 | 0.00 | 0.00 | 75 | 1015.2 |
| 20260503175530 | 13 | 150 | 8.0 | 17.7 | 0.00 | 0.00 | 0.00 | 74 | 1015.1 |
| 20260503175029 | 13 | 115 | 9.7 | 17.7 | 0.00 | 0.00 | 0.00 | 75 | 1015.1 |
| 20260503174538 | 13 | 219 | 6.4 | 17.7 | 0.00 | 0.00 | 0.00 | 76 | 1015.1 |
| 20260503174027 | 13 | 125 | 6.4 | 16.1 | 0.00 | 0.00 | 0.00 | 75 | 1015.2 |
| 20260503173527 | 13 | 229 | 3.2 | 16.1 | 0.00 | 0.00 | 0.00 | 76 | 1015.1 |
| 20260503173025 | 13 | 162 | 6.4 | 17.7 | 0.00 | 0.00 | 0.00 | 76 | 1015.1 |
| 20260503172524 | 13 | 122 | 4.8 | 17.7 | 0.00 | 0.00 | 0.00 | 76 | 1015.1 |
| 20260503172023 | 13 | 238 | 6.4 | 14.5 | 0.00 | 0.00 | 0.00 | 76 | 1015.0 |
| 20260503171528 | 13 | 136 | 6.4 | 14.5 | 0.00 | 0.00 | 0.00 | 77 | 1014.9 |
| 20260503171027 | 13 | 215 | 3.2 | 12.9 | 0.00 | 0.00 | 0.00 | 77 | 1014.9 |
| 20260503170522 | 12 | 231 | 3.2 | 11.3 | 0.00 | 0.00 | 0.00 | 77 | 1014.9 |
| 20260503151010 | 11 | 328 | 3.2 | 8.0 | 0.00 | 0.00 | 0.00 | 83 | 1014.2 |
| 20260503150509 | 11 | 5 | 3.2 | 6.4 | 0.00 | 0.00 | 0.00 | 84 | 1014.2 |
| 20260503131057 | 11 | 313 | 0.0 | 0.0 | 0.00 | 0.00 | 0.00 | 88 | 1013.2 |
| 20260503130557 | 11 | 313 | 0.0 | 0.0 | 0.00 | 0.00 | 0.00 | 88 | 1013.1 |
| 20260503110550 | 11 | 211 | 0.0 | 0.0 | 0.00 | 0.00 | 0.00 | 90 | 1013.0 |
| 20260503081553 | 11 | 115 | 0.0 | 0.0 | 0.00 | 0.00 | 0.00 | 90 | 1013.4 |
| 20260503081038 | 11 | 113 | 0.0 | 0.0 | 0.00 | 0.00 | 0.00 | 90 | 1013.5 |
| 20260503080541 | 11 | 113 | 0.0 | 0.0 | 0.00 | 0.00 | 0.00 | 90 | 1013.6 |
| 20260503072537 | 11 | 127 | 0.0 | 4.8 | 0.00 | 0.00 | 0.00 | 91 | 1013.6 |
| 20260503072037 | 11 | 123 | 1.6 | 4.8 | 0.00 | 0.00 | 0.00 | 90 | 1013.5 |
| 20260503071557 | 11 | 123 | 1.6 | 4.8 | 0.00 | 0.00 | 0.00 | 90 | 1013.5 |
| 20260503071036 | 11 | 92 | 0.0 | 1.6 | 0.00 | 0.00 | 0.00 | 90 | 1013.5 |
| 20260503070535 | 11 | 101 | 0.0 | 1.6 | 0.00 | 0.00 | 0.00 | 91 | 1013.4 |
| 20260503055030 | 11 | 163 | 0.0 | 1.6 | 0.00 | 0.00 | 0.00 | 90 | 1012.9 |
| 20260503054540 | 10 | 163 | 0.0 | 3.2 | 0.00 | 0.00 | 0.00 | 90 | 1013.0 |
| 20260503054032 | 10 | 163 | 0.0 | 3.2 | 0.00 | 0.00 | 0.00 | 90 | 1012.9 |
| 20260503053530 | 10 | 164 | 0.0 | 1.6 | 0.00 | 0.00 | 0.00 | 90 | 1012.8 |
| 20260503053030 | 10 | 164 | 0.0 | 1.6 | 0.00 | 0.00 | 0.00 | 90 | 1012.7 |
| 20260503052530 | 10 | 145 | 0.0 | 1.6 | 0.00 | 0.00 | 0.00 | 90 | 1012.9 |
| 20260503052030 | 10 | 145 | 0.0 | 1.6 | 0.00 | 0.00 | 0.00 | 90 | 1012.9 |
| 20260503051541 | 10 | 145 | 0.0 | 0.0 | 0.00 | 0.00 | 0.00 | 90 | 1012.8 |
| 20260503051029 | 10 | 145 | 0.0 | 0.0 | 0.00 | 0.00 | 0.00 | 90 | 1012.7 |
| 20260503050529 | 10 | 145 | 0.0 | 0.0 | 0.00 | 0.00 | 0.00 | 90 | 1012.7 |
| 20260503050029 | 10 | 145 | 0.0 | 1.6 | 0.00 | 0.00 | 0.00 | 90 | 1012.7 |
| 20260503045530 | 10 | 145 | 0.0 | 1.6 | 0.00 | 0.00 | 0.00 | 90 | 1012.6 |
| 20260503045030 | 10 | 145 | 0.0 | 3.2 | 0.00 | 0.00 | 0.00 | 90 | 1012.6 |
| 20260503044528 | 10 | 145 | 0.0 | 4.8 | 0.00 | 0.00 | 0.00 | 90 | 1012.6 |
| 20260503044027 | 10 | 145 | 0.0 | 4.8 | 0.00 | 0.00 | 0.00 | 89 | 1012.6 |
| 20260503043528 | 10 | 140 | 1.6 | 3.2 | 0.00 | 0.00 | 0.00 | 89 | 1012.4 |
| 20260503043027 | 10 | 140 | 0.0 | 6.4 | 0.00 | 0.00 | 0.00 | 89 | 1012.4 |
| 20260503042528 | 10 | 130 | 0.0 | 4.8 | 0.00 | 0.00 | 0.00 | 89 | 1012.5 |
| 20260503042027 | 10 | 222 | 0.0 | 4.8 | 0.00 | 0.00 | 0.00 | 88 | 1012.5 |
| 20260503041531 | 10 | 230 | 1.6 | 4.8 | 0.00 | 0.00 | 0.00 | 88 | 1012.5 |
| 20260503041026 | 10 | 228 | 0.0 | 3.2 | 0.00 | 0.00 | 0.00 | 88 | 1012.4 |
| 20260503040530 | 11 | 228 | 0.0 | 3.2 | 0.00 | 0.00 | 0.00 | 87 | 1012.5 |
| 20260503040026 | 11 | 228 | 0.0 | 3.2 | 0.00 | 0.00 | 0.00 | 87 | 1012.5 |
| 20260503035526 | 11 | 228 | 0.0 | 4.8 | 0.00 | 0.00 | 0.00 | 86 | 1012.4 |
| 20260503035026 | 11 | 250 | 0.0 | 4.8 | 0.00 | 0.00 | 0.00 | 85 | 1012.4 |
| 20260503034526 | 11 | 28 | 0.0 | 4.8 | 0.00 | 0.00 | 0.00 | 86 | 1012.4 |
| 20260503034025 | 11 | 250 | 1.6 | 9.7 | 0.00 | 0.00 | 0.00 | 85 | 1012.4 |
| 20260503033524 | 11 | 348 | 1.6 | 9.7 | 0.00 | 0.00 | 0.00 | 85 | 1012.3 |
| 20260503033024 | 11 | 300 | 1.6 | 6.4 | 0.00 | 0.00 | 0.00 | 84 | 1012.3 |
| 20260503032524 | 11 | 207 | 1.6 | 4.8 | 0.00 | 0.00 | 0.00 | 84 | 1012.3 |
| 20260503032024 | 11 | 360 | 1.6 | 8.0 | 0.00 | 0.00 | 0.00 | 83 | 1012.2 |
| 20260503031530 | 12 | 285 | 3.2 | 8.0 | 0.00 | 0.00 | 0.00 | 82 | 1012.1 |
| 20260503031024 | 12 | 300 | 1.6 | 4.8 | 0.00 | 0.00 | 0.00 | 82 | 1012.1 |
| 20260503030523 | 12 | 18 | 0.0 | 4.8 | 0.00 | 0.00 | 0.00 | 82 | 1012.0 |
| 20260503030028 | 12 | 342 | 1.6 | 4.8 | 0.00 | 0.00 | 0.00 | 82 | 1011.9 |
| 20260503025524 | 12 | 227 | 1.6 | 8.0 | 0.00 | 0.00 | 0.00 | 81 | 1011.8 |
| 20260503025025 | 12 | 231 | 1.6 | 11.3 | 0.00 | 0.00 | 0.00 | 81 | 1011.8 |
| 20260503024523 | 12 | 266 | 4.8 | 11.3 | 0.00 | 0.00 | 0.00 | 81 | 1011.8 |
| 20260503024023 | 12 | 306 | 3.2 | 14.5 | 0.00 | 0.00 | 0.00 | 80 | 1011.6 |
| 20260503023523 | 12 | 229 | 6.4 | 14.5 | 0.00 | 0.00 | 0.00 | 80 | 1011.5 |
| 20260503023023 | 13 | 266 | 3.2 | 14.5 | 0.00 | 0.00 | 0.00 | 80 | 1011.6 |
| 20260503022522 | 13 | 217 | 4.8 | 14.5 | 0.00 | 0.00 | 0.00 | 79 | 1011.5 |
| 20260503022024 | 13 | 213 | 8.0 | 14.5 | 0.00 | 0.00 | 0.00 | 79 | 1011.5 |
| 20260503021522 | 13 | 211 | 4.8 | 14.5 | 0.00 | 0.00 | 0.00 | 79 | 1011.5 |
| 20260503021022 | 13 | 278 | 4.8 | 14.5 | 0.00 | 0.00 | 0.00 | 78 | 1011.4 |
| 20260503020524 | 13 | 246 | 9.7 | 14.5 | 0.00 | 0.00 | 0.00 | 78 | 1011.4 |
| 20260503020022 | 13 | 262 | 6.4 | 16.1 | 0.00 | 0.00 | 0.00 | 78 | 1011.4 |
| 20260503015521 | 13 | 227 | 8.0 | 16.1 | 0.00 | 0.00 | 0.00 | 77 | 1011.4 |
| 20260503015021 | 14 | 239 | 6.4 | 14.5 | 0.00 | 0.00 | 0.00 | 77 | 1011.5 |
| 20260503014520 | 14 | 227 | 4.8 | 16.1 | 0.00 | 0.00 | 0.00 | 77 | 1011.5 |
| 20260503014020 | 14 | 263 | 4.8 | 12.9 | 0.00 | 0.00 | 0.00 | 76 | 1011.5 |
| 20260503013520 | 14 | 257 | 6.4 | 14.5 | 0.00 | 0.00 | 0.00 | 76 | 1011.5 |
| 20260503013031 | 15 | 237 | 8.0 | 14.5 | 0.00 | 0.00 | 0.00 | 76 | 1011.5 |
| 20260503012523 | 15 | 256 | 1.6 | 14.5 | 0.00 | 0.00 | 0.00 | 75 | 1011.6 |
| 20260503012020 | 15 | 231 | 4.8 | 17.7 | 0.00 | 0.00 | 0.00 | 75 | 1011.6 |
| 20260503011520 | 15 | 166 | 6.4 | 17.7 | 0.00 | 0.00 | 0.00 | 74 | 1011.7 |
| 20260503011023 | 15 | 190 | 6.4 | 14.5 | 0.00 | 0.00 | 0.00 | 73 | 1011.5 |
| 20260503010519 | 16 | 243 | 3.2 | 16.1 | 0.00 | 0.00 | 0.00 | 73 | 1011.5 |
| 20260503010019 | 16 | 201 | 6.4 | 16.1 | 0.00 | 0.00 | 0.00 | 72 | 1011.6 |
| 20260503005519 | 16 | 214 | 8.0 | 16.1 | 0.00 | 0.00 | 0.00 | 71 | 1011.6 |
| 20260503005019 | 16 | 165 | 8.0 | 17.7 | 0.00 | 0.00 | 0.00 | 72 | 1011.7 |
| 20260503004519 | 16 | 221 | 8.0 | 17.7 | 0.00 | 0.00 | 0.00 | 71 | 1011.7 |
| 20260503004018 | 17 | 222 | 9.7 | 19.3 | 0.00 | 0.00 | 0.00 | 69 | 1011.7 |
| 20260503003518 | 17 | 221 | 6.4 | 17.7 | 0.00 | 0.00 | 0.00 | 69 | 1011.6 |
| 20260503003022 | 17 | 259 | 4.8 | 19.3 | 0.00 | 0.00 | 0.00 | 69 | 1011.5 |
| 20260503002517 | 17 | 141 | 9.7 | 19.3 | 0.00 | 0.00 | 0.00 | 68 | 1011.5 |
| 20260503002018 | 17 | 253 | 6.4 | 14.5 | 0.00 | 0.00 | 0.00 | 67 | 1011.5 |
| 20260503001517 | 18 | 212 | 3.2 | 19.3 | 0.00 | 0.00 | 0.00 | 68 | 1011.4 |
| 20260503001016 | 17 | 206 | 8.0 | 19.3 | 0.00 | 0.00 | 0.00 | 67 | 1011.5 |
| 20260503000518 | 18 | 273 | 8.0 | 14.5 | 0.00 | 0.00 | 0.00 | 65 | 1011.6 |
| 20260503000020 | 18 | 244 | 4.8 | 14.5 | 0.00 | 0.00 | 0.00 | 66 | 1011.5 |
| 20260502235516 | 18 | 125 | 4.8 | 14.5 | 0.00 | 0.00 | 0.00 | 67 | 1011.6 |
| 20260502235016 | 18 | 159 | 6.4 | 14.5 | 0.00 | 0.00 | 0.00 | 68 | 1011.5 |
| 20260502234519 | 18 | 126 | 4.8 | 14.5 | 0.00 | 0.00 | 0.00 | 67 | 1011.5 |
| 20260502234015 | 18 | 244 | 4.8 | 14.5 | 0.00 | 0.00 | 0.00 | 66 | 1011.6 |
| 20260502233514 | 18 | 90 | 4.8 | 12.9 | 0.00 | 0.00 | 0.00 | 67 | 1011.5 |
| 20260502233014 | 18 | 259 | 4.8 | 17.7 | 0.00 | 0.00 | 0.00 | 67 | 1011.7 |
| 20260502232513 | 18 | 263 | 9.7 | 17.7 | 0.00 | 0.00 | 0.00 | 66 | 1011.8 |
| 20260502232012 | 18 | 165 | 9.7 | 17.7 | 0.00 | 0.00 | 0.00 | 67 | 1011.8 |
| 20260502231513 | 18 | 153 | 3.2 | 14.5 | 0.00 | 0.00 | 0.00 | 66 | 1011.9 |
| 20260502231011 | 18 | 171 | 6.4 | 14.5 | 0.00 | 0.00 | 0.00 | 66 | 1012.0 |
| 20260502230510 | 18 | 226 | 8.0 | 14.5 | 0.00 | 0.00 | 0.00 | 66 | 1012.1 |
| 20260502230010 | 18 | 219 | 4.8 | 8.0 | 0.00 | 0.00 | 0.00 | 67 | 1012.1 |
| 20260502225507 | 18 | 180 | 3.2 | 14.5 | 0.00 | 0.00 | 0.00 | 68 | 1012.1 |
| 20260502225006 | 18 | 275 | 8.0 | 17.7 | 0.00 | 0.00 | 0.00 | 67 | 1012.2 |